createdAt,value
2023-09-21T00:01:08.954Z,17.63
2023-09-21T00:03:36.564Z,18.70
2023-09-21T00:06:07.755Z,11.85
2023-09-21T00:08:34.780Z,14.25
2023-09-21T00:11:08.083Z,18.10
2023-09-21T00:13:34.943Z,12.85
2023-09-21T00:16:02.540Z,8.65
2023-09-21T00:18:31.311Z,13.80
2023-09-21T00:23:34.327Z,13.30
2023-09-21T00:26:01.852Z,10.70
2023-09-21T00:28:30.550Z,10.50
2023-09-21T00:30:59.047Z,13.23
2023-09-21T00:33:28.313Z,15.73
2023-09-21T00:35:56.771Z,15.15
2023-09-21T00:38:25.418Z,11.48
2023-09-21T00:40:58.164Z,15.55
2023-09-21T00:43:26.439Z,14.48
2023-09-21T00:45:55.909Z,12.25
2023-09-21T00:48:40.065Z,12.13
2023-09-21T00:51:09.200Z,17.38
2023-09-21T00:53:37.516Z,13.63
2023-09-21T00:56:13.946Z,14.43
2023-09-21T00:58:49.202Z,15.73
2023-09-21T01:01:17.878Z,14.73
2023-09-21T01:03:45.497Z,17.02
2023-09-21T01:06:12.829Z,16.10
2023-09-21T01:08:40.850Z,14.93
2023-09-21T01:11:15.988Z,18.23
2023-09-21T01:13:43.207Z,13.52
2023-09-21T01:16:13.078Z,15.02
2023-09-21T01:18:44.187Z,15.73
2023-09-21T01:21:14.865Z,13.43
2023-09-21T01:23:47.508Z,15.50
2023-09-21T01:26:16.282Z,12.10
2023-09-21T01:28:46.391Z,11.52
2023-09-21T01:31:15.191Z,13.90
2023-09-21T01:33:45.969Z,16.85
2023-09-21T01:36:14.374Z,17.42
2023-09-21T01:38:47.444Z,15.23
2023-09-21T01:41:16.105Z,19.20
2023-09-21T01:43:43.434Z,18.17
2023-09-21T01:46:14.387Z,15.60
2023-09-21T01:48:41.527Z,17.90
2023-09-21T01:51:08.981Z,19.08
2023-09-21T01:53:36.203Z,17.63
2023-09-21T01:56:03.458Z,19.70
2023-09-21T01:58:30.325Z,17.35
2023-09-21T02:00:57.408Z,21.33
2023-09-21T02:03:30.098Z,21.27
2023-09-21T02:05:59.383Z,19.35
2023-09-21T02:08:27.420Z,20.73
2023-09-21T02:10:55.679Z,18.48
2023-09-21T02:13:22.588Z,18.90
2023-09-21T02:15:53.174Z,16.48
2023-09-21T02:18:20.928Z,16.77
2023-09-21T02:20:55.124Z,16.65
2023-09-21T02:23:23.605Z,13.40
2023-09-21T02:25:53.374Z,14.70
2023-09-21T02:28:22.055Z,17.02
2023-09-21T02:33:35.551Z,9.75
2023-09-21T02:36:02.608Z,10.40
2023-09-21T02:38:29.249Z,9.55
2023-09-21T02:40:56.261Z,12.80
2023-09-21T02:43:23.842Z,12.18
2023-09-21T02:45:50.783Z,13.02
2023-09-21T02:48:18.288Z,20.20
2023-09-21T02:50:49.136Z,10.52
2023-09-21T02:53:16.388Z,17.23
2023-09-21T02:55:46.350Z,12.10
2023-09-21T02:58:14.943Z,14.55
2023-09-21T03:00:44.257Z,18.35
2023-09-21T03:03:17.005Z,17.23
2023-09-21T03:05:49.567Z,20.80
2023-09-21T03:08:18.362Z,16.17
2023-09-21T03:10:46.577Z,14.48
2023-09-21T03:13:21.578Z,15.23
2023-09-21T03:15:51.828Z,13.68
2023-09-21T03:18:22.963Z,12.52
2023-09-21T03:20:53.850Z,9.95
2023-09-21T03:23:22.479Z,9.35
2023-09-21T03:25:51.719Z,13.27
2023-09-21T03:28:20.923Z,11.98
2023-09-21T03:30:50.092Z,13.88
2023-09-21T03:33:19.858Z,14.52
2023-09-21T03:35:47.935Z,10.77
2023-09-21T03:38:16.407Z,8.68
2023-09-21T03:40:44.995Z,12.93
2023-09-21T03:43:14.295Z,11.23
2023-09-21T03:45:43.272Z,11.60
2023-09-21T03:48:11.877Z,12.45
2023-09-21T03:50:41.587Z,14.20
2023-09-21T03:53:11.106Z,14.80
2023-09-21T03:55:40.262Z,11.82
2023-09-21T03:58:08.789Z,17.50
2023-09-21T04:00:36.574Z,17.08
2023-09-21T04:03:16.925Z,18.50
2023-09-21T04:05:44.023Z,20.42
2023-09-21T04:08:11.404Z,21.75
2023-09-21T04:10:38.404Z,20.13
2023-09-21T04:13:07.315Z,21.30
2023-09-21T04:15:34.527Z,22.67
2023-09-21T04:18:02.957Z,25.30
2023-09-21T04:20:36.290Z,21.92
2023-09-21T04:23:04.548Z,19.90
2023-09-21T04:25:31.981Z,31.98
2023-09-21T04:27:58.980Z,26.33
2023-09-21T04:30:28.190Z,17.30
2023-09-21T04:32:56.867Z,22.83
2023-09-21T04:35:23.808Z,19.52
2023-09-21T04:37:55.605Z,22.85
2023-09-21T04:40:23.482Z,19.67
2023-09-21T04:42:51.587Z,18.73
2023-09-21T04:45:22.747Z,17.70
2023-09-21T04:47:54.887Z,22.60
2023-09-21T04:50:21.986Z,25.88
2023-09-21T04:52:51.807Z,17.10
2023-09-21T04:55:18.855Z,23.77
2023-09-21T04:57:49.517Z,23.70
2023-09-21T05:00:17.560Z,17.13
2023-09-21T05:02:45.533Z,20.10
2023-09-21T05:05:14.865Z,22.42
2023-09-21T05:07:42.320Z,24.85
2023-09-21T05:10:13.714Z,29.13
2023-09-21T05:12:41.364Z,35.60
2023-09-21T05:15:10.014Z,23.45
2023-09-21T05:17:40.362Z,20.85
2023-09-21T05:20:11.211Z,19.15
2023-09-21T05:22:41.557Z,17.25
2023-09-21T05:25:09.064Z,16.80
2023-09-21T05:27:36.253Z,26.38
2023-09-21T05:30:06.179Z,23.40
2023-09-21T05:32:37.603Z,20.40
2023-09-21T05:35:06.675Z,15.13
2023-09-21T05:37:36.002Z,18.75
2023-09-21T05:40:08.173Z,26.98
2023-09-21T05:42:35.751Z,23.30
2023-09-21T05:45:02.978Z,25.17
2023-09-21T05:47:30.406Z,27.10
2023-09-21T05:49:57.492Z,15.90
2023-09-21T05:52:25.670Z,16.88
2023-09-21T05:54:53.617Z,16.67
2023-09-21T05:57:20.878Z,16.25
2023-09-21T05:59:48.209Z,22.10
2023-09-21T06:02:15.664Z,17.90
2023-09-21T06:04:44.976Z,16.95
2023-09-21T06:07:12.302Z,28.80
2023-09-21T06:09:39.233Z,19.95
2023-09-21T06:12:12.044Z,15.95
2023-09-21T06:14:39.114Z,21.52
2023-09-21T06:17:11.715Z,28.48
2023-09-21T06:19:42.099Z,20.27
2023-09-21T06:22:09.010Z,23.77
2023-09-21T06:24:35.847Z,19.80
2023-09-21T06:27:02.614Z,17.73
2023-09-21T06:29:29.724Z,24.23
2023-09-21T06:34:26.868Z,20.05
2023-09-21T06:36:54.527Z,14.23
2023-09-21T06:39:22.882Z,28.40
2023-09-21T06:41:50.147Z,29.27
2023-09-21T06:44:19.956Z,13.68
2023-09-21T06:46:51.379Z,16.45
2023-09-21T06:49:18.151Z,19.27
2023-09-21T06:51:45.337Z,19.80
2023-09-21T06:54:12.182Z,18.98
2023-09-21T06:56:39.089Z,20.80
2023-09-21T06:59:08.001Z,15.70
2023-09-21T07:01:35.814Z,20.00
2023-09-21T07:04:04.974Z,21.90
2023-09-21T07:06:32.436Z,18.95
2023-09-21T07:09:00.640Z,14.75
2023-09-21T07:11:27.518Z,22.90
2023-09-21T07:13:56.871Z,21.92
2023-09-21T07:16:24.077Z,13.82
2023-09-21T07:18:51.078Z,16.52
2023-09-21T07:21:18.041Z,22.90
2023-09-21T07:23:45.154Z,11.30
2023-09-21T07:26:12.176Z,18.60
2023-09-21T07:28:39.401Z,15.57
2023-09-21T07:31:06.209Z,14.57
2023-09-21T07:33:33.080Z,17.65
2023-09-21T07:35:59.992Z,5.50
2023-09-21T07:38:28.596Z,7.57
2023-09-21T07:40:55.641Z,9.25
2023-09-21T07:43:22.723Z,11.45
2023-09-21T07:45:50.613Z,11.73
2023-09-21T07:48:17.836Z,10.90
2023-09-21T07:50:45.868Z,10.55
2023-09-21T07:53:13.123Z,5.30
2023-09-21T07:55:39.972Z,7.40
2023-09-21T07:58:06.726Z,6.47
2023-09-21T08:00:33.607Z,10.32
2023-09-21T08:03:00.689Z,5.30
2023-09-21T08:05:32.007Z,9.70
2023-09-21T08:08:00.448Z,4.07
2023-09-21T08:10:28.043Z,8.40
2023-09-21T08:12:54.767Z,7.93
2023-09-21T08:15:22.553Z,6.78
2023-09-21T08:17:49.612Z,8.23
2023-09-21T08:20:16.609Z,4.50
2023-09-21T08:23:02.452Z,5.32
2023-09-21T08:25:29.245Z,8.43
2023-09-21T08:27:57.425Z,15.80
2023-09-21T08:30:24.888Z,5.68
2023-09-21T08:32:51.718Z,6.07
2023-09-21T08:35:18.657Z,9.90
2023-09-21T08:37:45.939Z,13.30
2023-09-21T08:40:13.337Z,8.80
2023-09-21T08:42:40.300Z,8.82
2023-09-21T08:45:11.226Z,10.80
2023-09-21T08:47:40.087Z,12.30
2023-09-21T08:50:09.206Z,9.98
2023-09-21T08:52:36.122Z,6.82
2023-09-21T08:55:03.853Z,9.70
2023-09-21T08:57:32.825Z,11.15
2023-09-21T09:00:13.389Z,10.38
2023-09-21T09:02:40.734Z,13.70
2023-09-21T09:05:09.771Z,13.40
2023-09-21T09:07:41.687Z,8.77
2023-09-21T09:10:14.840Z,7.88
2023-09-21T09:12:43.545Z,11.00
2023-09-21T09:15:11.985Z,10.88
2023-09-21T09:17:40.534Z,22.13
2023-09-21T09:20:08.234Z,9.80
2023-09-21T09:22:39.390Z,15.30
2023-09-21T09:25:08.759Z,20.13
2023-09-21T09:27:37.298Z,9.63
2023-09-21T09:30:10.151Z,15.40
2023-09-21T09:32:41.643Z,12.38
2023-09-21T09:35:15.494Z,12.18
2023-09-21T09:37:48.508Z,6.28
2023-09-21T09:40:25.309Z,9.82
2023-09-21T09:42:53.294Z,8.38
2023-09-21T09:45:26.475Z,7.78
2023-09-21T09:47:58.946Z,9.90
2023-09-21T09:50:26.698Z,8.02
2023-09-21T09:53:04.078Z,11.82
2023-09-21T09:55:34.765Z,11.07
2023-09-21T09:58:02.771Z,15.52
2023-09-21T10:00:30.681Z,19.77
2023-09-21T10:02:59.226Z,10.45
2023-09-21T10:05:27.877Z,10.73
2023-09-21T10:07:58.792Z,15.07
2023-09-21T10:10:31.465Z,8.75
2023-09-21T10:12:58.849Z,6.78
2023-09-21T10:15:26.298Z,10.82
2023-09-21T10:17:57.694Z,7.63
2023-09-21T10:20:29.020Z,7.35
2023-09-21T10:22:57.086Z,6.35
2023-09-21T10:25:44.035Z,7.35
2023-09-21T10:28:29.291Z,7.80
2023-09-21T10:31:10.490Z,5.70
2023-09-21T10:33:38.229Z,9.35
2023-09-21T10:36:05.885Z,6.32
2023-09-21T10:41:33.529Z,7.20
2023-09-21T10:44:07.484Z,7.90
2023-09-21T10:46:41.468Z,7.25
2023-09-21T10:49:08.316Z,6.65
2023-09-21T10:51:35.391Z,5.18
2023-09-21T10:54:06.840Z,4.75
2023-09-21T10:56:35.864Z,4.47
2023-09-21T10:59:03.146Z,3.30
2023-09-21T11:01:31.362Z,5.40
2023-09-21T11:03:59.855Z,2.53
2023-09-21T11:06:27.845Z,7.03
2023-09-21T11:08:56.726Z,5.13
2023-09-21T11:11:26.529Z,5.22
2023-09-21T11:13:53.857Z,5.20
2023-09-21T11:16:22.542Z,5.18
2023-09-21T11:18:51.713Z,5.00
2023-09-21T11:21:18.915Z,2.72
2023-09-21T11:23:46.186Z,4.93
2023-09-21T11:26:34.113Z,4.25
2023-09-21T11:29:01.039Z,4.35
2023-09-21T11:31:31.894Z,3.67
2023-09-21T11:34:12.334Z,3.92
2023-09-21T11:36:41.850Z,4.28
2023-09-21T11:39:09.579Z,4.15
2023-09-21T11:41:37.914Z,5.05
2023-09-21T11:44:05.722Z,6.93
2023-09-21T11:46:32.862Z,3.38
2023-09-21T11:49:00.685Z,4.03
2023-09-21T11:51:29.917Z,5.70
2023-09-21T11:54:01.435Z,6.70
2023-09-21T11:56:28.362Z,4.03
2023-09-21T11:59:00.072Z,3.63
2023-09-21T12:01:29.330Z,3.63
2023-09-21T12:03:58.296Z,8.02
2023-09-21T12:06:28.769Z,8.13
2023-09-21T12:08:56.079Z,5.55
2023-09-21T12:11:22.869Z,5.07
2023-09-21T12:13:49.793Z,5.80
2023-09-21T12:16:17.256Z,3.20
2023-09-21T12:18:45.228Z,2.92
2023-09-21T12:21:12.587Z,3.30
2023-09-21T12:23:39.895Z,7.68
2023-09-21T12:26:07.017Z,2.90
2023-09-21T12:28:36.870Z,4.63
2023-09-21T12:33:41.971Z,4.70
2023-09-21T12:36:09.367Z,5.75
2023-09-21T12:38:36.687Z,3.78
2023-09-21T12:41:04.661Z,3.65
2023-09-21T12:43:31.743Z,5.88
2023-09-21T12:46:00.176Z,7.60
2023-09-21T12:48:27.578Z,3.33
2023-09-21T12:50:54.736Z,5.68
2023-09-21T12:53:22.196Z,3.95
2023-09-21T12:55:50.776Z,3.53
2023-09-21T12:58:17.547Z,4.63
2023-09-21T13:00:46.732Z,7.50
2023-09-21T13:03:14.976Z,7.35
2023-09-21T13:05:45.008Z,10.27
2023-09-21T13:08:14.128Z,6.30
2023-09-21T13:10:45.920Z,7.85
2023-09-21T13:13:13.158Z,11.95
2023-09-21T13:15:40.924Z,5.32
2023-09-21T13:18:07.884Z,5.63
2023-09-21T13:20:34.676Z,6.20
2023-09-21T13:23:01.428Z,5.05
2023-09-21T13:25:29.148Z,6.57
2023-09-21T13:27:56.162Z,6.43
2023-09-21T13:30:23.140Z,3.35
2023-09-21T13:32:51.443Z,3.65
2023-09-21T13:35:18.562Z,4.05
2023-09-21T13:37:45.874Z,4.50
2023-09-21T13:40:13.457Z,9.13
2023-09-21T13:42:40.957Z,3.03
2023-09-21T13:45:11.649Z,4.32
2023-09-21T13:47:41.150Z,6.15
2023-09-21T13:50:09.448Z,3.53
2023-09-21T13:52:38.192Z,3.28
2023-09-21T13:55:17.901Z,6.15
2023-09-21T13:57:46.281Z,5.75
2023-09-21T14:00:15.137Z,5.35
2023-09-21T14:02:46.473Z,2.75
2023-09-21T14:05:14.015Z,5.90
2023-09-21T14:07:41.166Z,4.10
2023-09-21T14:10:08.778Z,3.03
2023-09-21T14:12:35.796Z,6.50
2023-09-21T14:17:46.797Z,8.23
2023-09-21T14:20:14.653Z,3.85
2023-09-21T14:22:41.967Z,4.95
2023-09-21T14:25:11.931Z,5.50
2023-09-21T14:27:38.650Z,3.92
2023-09-21T14:30:06.555Z,2.85
2023-09-21T14:32:34.220Z,4.95
2023-09-21T14:35:06.398Z,5.15
2023-09-21T14:37:33.290Z,2.47
2023-09-21T14:40:01.756Z,3.85
2023-09-21T14:42:29.678Z,5.18
2023-09-21T14:44:56.802Z,5.80
2023-09-21T14:47:24.326Z,5.22
2023-09-21T14:49:52.501Z,5.63
2023-09-21T14:52:22.794Z,3.10
2023-09-21T14:54:50.517Z,3.30
2023-09-21T14:57:17.373Z,1.98
2023-09-21T14:59:45.185Z,5.82
2023-09-21T15:02:12.536Z,2.75
2023-09-21T15:04:41.208Z,5.30
2023-09-21T15:07:09.043Z,3.58
2023-09-21T15:09:36.455Z,2.78
2023-09-21T15:12:04.721Z,5.97
2023-09-21T15:17:17.028Z,3.28
2023-09-21T15:19:43.737Z,4.90
2023-09-21T15:22:13.692Z,5.00
2023-09-21T15:24:40.771Z,6.45
2023-09-21T15:27:07.735Z,7.13
2023-09-21T15:29:34.647Z,5.20
2023-09-21T15:32:01.541Z,2.60
2023-09-21T15:34:28.417Z,4.03
2023-09-21T15:36:55.740Z,12.57
2023-09-21T15:39:22.444Z,2.10
2023-09-21T15:41:52.253Z,7.13
2023-09-21T15:44:18.923Z,3.22
2023-09-21T15:46:45.674Z,3.90
2023-09-21T15:49:12.985Z,3.13
2023-09-21T15:51:40.084Z,5.97
2023-09-21T15:54:07.682Z,7.30
2023-09-21T15:56:34.934Z,4.70
2023-09-21T15:59:01.839Z,3.53
2023-09-21T16:01:29.008Z,2.03
2023-09-21T16:03:56.401Z,5.20
2023-09-21T16:06:23.326Z,4.88
2023-09-21T16:08:50.219Z,6.43
2023-09-21T16:11:18.836Z,7.32
2023-09-21T16:13:45.671Z,4.78
2023-09-21T16:16:12.442Z,3.33
2023-09-21T16:18:39.345Z,4.05
2023-09-21T16:21:06.617Z,6.70
2023-09-21T16:23:33.589Z,5.00
2023-09-21T16:26:00.510Z,9.10
2023-09-21T16:28:28.194Z,11.02
2023-09-21T16:30:55.649Z,4.60
2023-09-21T16:33:23.692Z,8.18
2023-09-21T16:35:52.836Z,6.78
2023-09-21T16:38:19.746Z,6.75
2023-09-21T16:40:46.445Z,6.10
2023-09-21T16:43:13.237Z,5.57
2023-09-21T16:45:43.025Z,6.65
2023-09-21T16:48:10.124Z,6.25
2023-09-21T16:50:37.654Z,4.22
2023-09-21T16:53:04.961Z,4.80
2023-09-21T16:55:32.142Z,6.40
2023-09-21T16:57:58.824Z,6.57
2023-09-21T17:00:28.070Z,5.68
2023-09-21T17:02:54.997Z,7.03
2023-09-21T17:05:24.224Z,10.32
2023-09-21T17:07:51.426Z,3.50
2023-09-21T17:10:18.563Z,6.50
2023-09-21T17:12:46.819Z,9.63
2023-09-21T17:15:17.034Z,4.28
2023-09-21T17:17:44.944Z,5.93
2023-09-21T17:20:13.547Z,2.97
2023-09-21T17:22:42.345Z,4.00
2023-09-21T17:25:15.878Z,11.23
2023-09-21T17:27:46.034Z,4.60
2023-09-21T17:30:13.891Z,3.90
2023-09-21T17:32:41.103Z,3.35
2023-09-21T17:35:08.787Z,7.95
2023-09-21T17:37:36.182Z,6.45
2023-09-21T17:40:05.588Z,6.57
2023-09-21T17:42:36.944Z,8.43
2023-09-21T17:45:07.695Z,6.00
2023-09-21T17:47:35.175Z,3.25
2023-09-21T17:50:02.220Z,5.57
2023-09-21T17:52:29.317Z,4.72
2023-09-21T17:54:56.350Z,6.05
2023-09-21T17:57:23.489Z,4.63
2023-09-21T17:59:52.166Z,3.42
2023-09-21T18:02:20.143Z,2.53
2023-09-21T18:04:47.240Z,4.30
2023-09-21T18:07:16.561Z,5.55
2023-09-21T18:09:45.971Z,2.63
2023-09-21T18:12:14.003Z,3.78
2023-09-21T18:14:40.780Z,5.97
2023-09-21T18:17:10.252Z,6.53
2023-09-21T18:19:36.956Z,4.18
2023-09-21T18:22:05.176Z,7.10
2023-09-21T18:24:33.004Z,2.40
2023-09-21T18:26:59.885Z,2.80
2023-09-21T18:29:27.961Z,3.63
2023-09-21T18:31:54.736Z,3.00
2023-09-21T18:34:21.462Z,3.35
2023-09-21T18:36:48.108Z,3.33
2023-09-21T18:39:15.019Z,3.03
2023-09-21T18:41:42.417Z,8.55
2023-09-21T18:44:09.115Z,5.13
2023-09-21T18:46:37.040Z,4.72
2023-09-21T18:49:03.799Z,4.75
2023-09-21T18:51:30.785Z,3.78
2023-09-21T18:53:57.632Z,4.07
2023-09-21T18:56:29.494Z,5.00
2023-09-21T18:58:57.722Z,3.08
2023-09-21T19:01:25.244Z,4.93
2023-09-21T19:03:55.330Z,3.13
2023-09-21T19:06:22.747Z,5.53
2023-09-21T19:08:50.516Z,2.53
2023-09-21T19:11:18.384Z,3.00
2023-09-21T19:13:45.951Z,5.63
2023-09-21T19:16:14.151Z,4.32
2023-09-21T19:18:41.770Z,4.45
2023-09-21T19:21:10.168Z,5.50
2023-09-21T19:23:37.629Z,4.97
2023-09-21T19:26:05.053Z,7.65
2023-09-21T19:28:32.544Z,5.57
2023-09-21T19:31:00.863Z,5.60
2023-09-21T19:33:28.213Z,3.53
2023-09-21T19:35:56.400Z,7.53
2023-09-21T19:38:24.810Z,5.68
2023-09-21T19:40:51.825Z,9.10
2023-09-21T19:43:18.702Z,5.60
2023-09-21T19:45:45.428Z,3.45
2023-09-21T19:48:12.300Z,5.20
2023-09-21T19:50:39.863Z,8.55
2023-09-21T19:53:06.684Z,5.70
2023-09-21T19:55:33.411Z,4.57
2023-09-21T19:58:00.426Z,8.18
2023-09-21T20:00:27.212Z,6.22
2023-09-21T20:02:54.310Z,4.85
2023-09-21T20:05:21.099Z,4.45
2023-09-21T20:07:47.867Z,8.07
2023-09-21T20:10:14.723Z,6.45
2023-09-21T20:12:41.464Z,6.05
2023-09-21T20:15:09.961Z,5.07
2023-09-21T20:17:37.130Z,5.30
2023-09-21T20:20:04.070Z,4.82
2023-09-21T20:22:31.922Z,3.58
2023-09-21T20:24:59.099Z,5.32
2023-09-21T20:27:26.143Z,5.97
2023-09-21T20:29:52.931Z,7.15
2023-09-21T20:32:20.410Z,3.67
2023-09-21T20:34:47.151Z,3.38
2023-09-21T20:37:16.032Z,6.25
2023-09-21T20:39:42.971Z,7.40
2023-09-21T20:42:09.815Z,8.77
2023-09-21T20:44:36.579Z,6.53
2023-09-21T20:47:03.356Z,5.03
2023-09-21T20:49:30.067Z,3.58
2023-09-21T20:51:56.837Z,4.18
2023-09-21T20:54:24.048Z,3.40
2023-09-21T20:56:51.530Z,3.85
2023-09-21T20:59:18.324Z,3.70
2023-09-21T21:01:45.234Z,8.13
2023-09-21T21:04:12.355Z,4.22
2023-09-21T21:06:39.554Z,4.38
2023-09-21T21:09:07.025Z,4.25
2023-09-21T21:11:33.763Z,4.30
2023-09-21T21:14:01.124Z,6.63
2023-09-21T21:16:27.755Z,4.82
2023-09-21T21:18:54.879Z,6.05
2023-09-21T21:21:21.711Z,1.98
2023-09-21T21:23:48.592Z,3.53
2023-09-21T21:26:15.360Z,5.80
2023-09-21T21:28:42.827Z,4.57
2023-09-21T21:31:10.777Z,5.20
2023-09-21T21:33:37.635Z,2.22
2023-09-21T21:36:04.671Z,4.03
2023-09-21T21:38:31.450Z,5.65
2023-09-21T21:40:58.182Z,3.25
2023-09-21T21:43:24.961Z,4.60
2023-09-21T21:45:51.899Z,4.38
2023-09-21T21:48:18.836Z,3.00
2023-09-21T21:50:45.550Z,2.58
2023-09-21T21:53:12.200Z,3.70
2023-09-21T21:55:39.889Z,9.45
2023-09-21T21:58:06.753Z,4.18
2023-09-21T22:00:39.247Z,2.47
2023-09-21T22:03:09.324Z,3.53
2023-09-21T22:05:38.228Z,4.88
2023-09-21T22:08:06.883Z,3.33
2023-09-21T22:10:33.967Z,4.70
2023-09-21T22:13:04.034Z,4.50
2023-09-21T22:15:32.248Z,3.15
2023-09-21T22:18:01.287Z,3.67
2023-09-21T22:20:32.220Z,3.08
2023-09-21T22:22:59.948Z,3.80
2023-09-21T22:25:29.572Z,4.75
2023-09-21T22:27:56.355Z,2.65
2023-09-21T22:30:23.257Z,4.38
2023-09-21T22:32:50.136Z,4.07
2023-09-21T22:35:17.161Z,6.03
2023-09-21T22:37:43.935Z,4.45
2023-09-21T22:40:11.258Z,7.57
2023-09-21T22:42:48.851Z,4.72
2023-09-21T22:45:17.358Z,2.63
2023-09-21T22:47:44.948Z,3.67
2023-09-21T22:50:15.615Z,2.47
2023-09-21T22:52:49.041Z,2.35
2023-09-21T22:55:21.910Z,3.75
2023-09-21T22:57:48.858Z,4.03
2023-09-21T23:00:19.550Z,2.35
2023-09-21T23:02:47.450Z,3.70
2023-09-21T23:05:14.718Z,5.22
2023-09-21T23:07:43.407Z,2.97
2023-09-21T23:10:14.991Z,7.25
2023-09-21T23:12:43.259Z,2.92
2023-09-21T23:15:11.905Z,4.82
2023-09-21T23:17:42.162Z,3.63
2023-09-21T23:20:14.876Z,3.88
2023-09-21T23:22:45.866Z,4.05
2023-09-21T23:25:15.477Z,1.90
2023-09-21T23:27:42.379Z,2.50
2023-09-21T23:30:10.483Z,5.43
2023-09-21T23:32:37.622Z,8.45
2023-09-21T23:35:09.168Z,5.65
2023-09-21T23:37:38.811Z,4.07
2023-09-21T23:40:10.060Z,3.92
2023-09-21T23:42:42.136Z,3.33
2023-09-21T23:45:14.366Z,4.20
2023-09-21T23:47:42.122Z,2.60
2023-09-21T23:50:13.509Z,2.55
2023-09-21T23:52:41.994Z,2.88
2023-09-21T23:55:11.518Z,3.28
2023-09-21T23:57:39.362Z,2.60
